sensor_id;sensor_type;location;lat;lon;timestamp;pressure;altitude;pressure_sealevel;temperature;humidity
76297;BME280;65104;52.994;6.552;2023-09-08T00:01:58;101793.69;;;18.03;100.00
76297;BME280;65104;52.994;6.552;2023-09-08T00:04:24;101802.34;;;17.97;100.00
76297;BME280;65104;52.994;6.552;2023-09-08T00:06:49;101797.97;;;17.93;100.00
76297;BME280;65104;52.994;6.552;2023-09-08T00:09:14;101798.84;;;17.93;100.00
76297;BME280;65104;52.994;6.552;2023-09-08T00:11:40;101804.03;;;17.90;100.00
76297;BME280;65104;52.994;6.552;2023-09-08T00:14:05;101791.03;;;17.86;100.00
76297;BME280;65104;52.994;6.552;2023-09-08T00:16:31;101793.59;;;17.81;100.00
76297;BME280;65104;52.994;6.552;2023-09-08T00:18:57;101780.63;;;17.80;100.00
76297;BME280;65104;52.994;6.552;2023-09-08T00:21:26;101788.41;;;17.78;100.00
76297;BME280;65104;52.994;6.552;2023-09-08T00:23:52;101787.53;;;17.76;100.00
76297;BME280;65104;52.994;6.552;2023-09-08T00:26:17;101793.56;;;17.75;100.00
76297;BME280;65104;52.994;6.552;2023-09-08T00:28:43;101790.97;;;17.74;100.00
76297;BME280;65104;52.994;6.552;2023-09-08T00:31:08;101790.09;;;17.73;100.00
76297;BME280;65104;52.994;6.552;2023-09-08T00:33:33;101790.09;;;17.70;100.00
76297;BME280;65104;52.994;6.552;2023-09-08T00:35:59;101783.16;;;17.68;100.00
76297;BME280;65104;52.994;6.552;2023-09-08T00:38:25;101780.50;;;17.61;100.00
76297;BME280;65104;52.994;6.552;2023-09-08T00:40:50;101775.28;;;17.58;100.00
76297;BME280;65104;52.994;6.552;2023-09-08T00:43:16;101780.44;;;17.54;100.00
76297;BME280;65104;52.994;6.552;2023-09-08T00:45:42;101774.38;;;17.50;100.00
76297;BME280;65104;52.994;6.552;2023-09-08T00:48:09;101780.41;;;17.46;100.00
76297;BME280;65104;52.994;6.552;2023-09-08T00:50:36;101771.75;;;17.44;100.00
76297;BME280;65104;52.994;6.552;2023-09-08T00:53:02;101778.63;;;17.39;100.00
76297;BME280;65104;52.994;6.552;2023-09-08T00:55:29;101778.63;;;17.38;100.00
76297;BME280;65104;52.994;6.552;2023-09-08T00:57:55;101782.09;;;17.34;100.00
76297;BME280;65104;52.994;6.552;2023-09-08T01:00:20;101772.53;;;17.31;100.00
76297;BME280;65104;52.994;6.552;2023-09-08T01:02:46;101782.03;;;17.29;100.00
76297;BME280;65104;52.994;6.552;2023-09-08T01:05:11;101773.38;;;17.24;100.00
76297;BME280;65104;52.994;6.552;2023-09-08T01:07:39;101777.66;;;17.22;100.00
76297;BME280;65104;52.994;6.552;2023-09-08T01:10:06;101779.38;;;17.18;100.00
76297;BME280;65104;52.994;6.552;2023-09-08T01:12:32;101771.59;;;17.17;100.00
76297;BME280;65104;52.994;6.552;2023-09-08T01:14:58;101778.50;;;17.18;100.00
76297;BME280;65104;52.994;6.552;2023-09-08T01:17:25;101777.66;;;17.17;100.00
76297;BME280;65104;52.994;6.552;2023-09-08T01:19:54;101782.84;;;17.17;100.00
76297;BME280;65104;52.994;6.552;2023-09-08T01:22:36;101788.03;;;17.19;100.00
76297;BME280;65104;52.994;6.552;2023-09-08T01:25:20;101775.03;;;17.19;100.00
76297;BME280;65104;52.994;6.552;2023-09-08T01:27:49;101773.31;;;17.16;100.00
76297;BME280;65104;52.994;6.552;2023-09-08T01:30:16;101772.44;;;17.14;100.00
76297;BME280;65104;52.994;6.552;2023-09-08T01:32:42;101772.41;;;17.13;100.00
76297;BME280;65104;52.994;6.552;2023-09-08T01:35:09;101781.94;;;17.14;100.00
76297;BME280;65104;52.994;6.552;2023-09-08T01:37:34;101771.56;;;17.12;100.00
76297;BME280;65104;52.994;6.552;2023-09-08T01:40:00;101782.78;;;17.10;100.00
76297;BME280;65104;52.994;6.552;2023-09-08T01:42:25;101783.63;;;17.06;100.00
76297;BME280;65104;52.994;6.552;2023-09-08T01:44:50;101790.53;;;17.04;100.00
76297;BME280;65104;52.994;6.552;2023-09-08T01:47:16;101784.47;;;17.03;100.00
76297;BME280;65104;52.994;6.552;2023-09-08T01:49:41;101775.81;;;17.03;100.00
76297;BME280;65104;52.994;6.552;2023-09-08T01:52:07;101777.50;;;17.01;100.00
76297;BME280;65104;52.994;6.552;2023-09-08T01:54:32;101780.09;;;17.01;100.00
76297;BME280;65104;52.994;6.552;2023-09-08T01:56:58;101782.72;;;16.99;100.00
76297;BME280;65104;52.994;6.552;2023-09-08T01:59:23;101782.69;;;16.96;100.00
76297;BME280;65104;52.994;6.552;2023-09-08T02:01:48;101780.09;;;16.96;100.00
76297;BME280;65104;52.994;6.552;2023-09-08T02:04:14;101778.31;;;16.92;100.00
76297;BME280;65104;52.994;6.552;2023-09-08T02:06:39;101780.06;;;16.95;100.00
76297;BME280;65104;52.994;6.552;2023-09-08T02:09:04;101771.41;;;16.90;100.00
76297;BME280;65104;52.994;6.552;2023-09-08T02:11:30;101771.41;;;16.90;100.00
76297;BME280;65104;52.994;6.552;2023-09-08T02:13:55;101776.56;;;16.86;100.00
76297;BME280;65104;52.994;6.552;2023-09-08T02:16:20;101774.81;;;16.85;100.00
76297;BME280;65104;52.994;6.552;2023-09-08T02:18:46;101769.59;;;16.81;100.00
76297;BME280;65104;52.994;6.552;2023-09-08T02:21:11;101765.28;;;16.80;100.00
76297;BME280;65104;52.994;6.552;2023-09-08T02:23:37;101769.56;;;16.76;100.00
76297;BME280;65104;52.994;6.552;2023-09-08T02:26:02;101761.75;;;16.75;100.00
76297;BME280;65104;52.994;6.552;2023-09-08T02:28:28;101760.03;;;16.72;100.00
76297;BME280;65104;52.994;6.552;2023-09-08T02:30:54;101757.41;;;16.71;100.00
76297;BME280;65104;52.994;6.552;2023-09-08T02:33:19;101761.72;;;16.69;100.00
76297;BME280;65104;52.994;6.552;2023-09-08T02:35:45;101748.69;;;16.61;100.00
76297;BME280;65104;52.994;6.552;2023-09-08T02:38:10;101753.03;;;16.64;100.00
76297;BME280;65104;52.994;6.552;2023-09-08T02:40:36;101762.53;;;16.62;100.00
76297;BME280;65104;52.994;6.552;2023-09-08T02:43:02;101757.34;;;16.62;100.00
76297;BME280;65104;52.994;6.552;2023-09-08T02:45:28;101758.13;;;16.59;100.00
76297;BME280;65104;52.994;6.552;2023-09-08T02:47:53;101761.66;;;16.61;100.00
76297;BME280;65104;52.994;6.552;2023-09-08T02:50:19;101759.00;;;16.60;100.00
76297;BME280;65104;52.994;6.552;2023-09-08T02:52:44;101757.22;;;16.56;100.00
76297;BME280;65104;52.994;6.552;2023-09-08T02:55:10;101762.44;;;16.54;100.00
76297;BME280;65104;52.994;6.552;2023-09-08T02:57:37;101759.78;;;16.51;100.00
76297;BME280;65104;52.994;6.552;2023-09-08T03:00:03;101758.91;;;16.49;100.00
76297;BME280;65104;52.994;6.552;2023-09-08T03:02:30;101765.84;;;16.50;100.00
76297;BME280;65104;52.994;6.552;2023-09-08T03:04:55;101759.75;;;16.46;100.00
76297;BME280;65104;52.994;6.552;2023-09-08T03:07:21;101761.50;;;16.46;100.00
76297;BME280;65104;52.994;6.552;2023-09-08T03:09:46;101754.53;;;16.43;100.00
76297;BME280;65104;52.994;6.552;2023-09-08T03:12:12;101753.69;;;16.43;100.00
76297;BME280;65104;52.994;6.552;2023-09-08T03:14:37;101756.25;;;16.41;100.00
76297;BME280;65104;52.994;6.552;2023-09-08T03:17:03;101757.06;;;16.39;100.00
76297;BME280;65104;52.994;6.552;2023-09-08T03:19:28;101746.72;;;16.36;100.00
76297;BME280;65104;52.994;6.552;2023-09-08T03:21:54;101755.34;;;16.35;100.00
76297;BME280;65104;52.994;6.552;2023-09-08T03:24:19;101745.78;;;16.32;100.00
76297;BME280;65104;52.994;6.552;2023-09-08T03:26:44;101750.06;;;16.29;100.00
76297;BME280;65104;52.994;6.552;2023-09-08T03:29:10;101749.22;;;16.28;100.00
76297;BME280;65104;52.994;6.552;2023-09-08T03:31:36;101743.97;;;16.22;100.00
76297;BME280;65104;52.994;6.552;2023-09-08T03:34:01;101736.16;;;16.21;100.00
76297;BME280;65104;52.994;6.552;2023-09-08T03:36:27;101739.59;;;16.20;100.00
76297;BME280;65104;52.994;6.552;2023-09-08T03:38:52;101737.03;;;16.18;100.00
76297;BME280;65104;52.994;6.552;2023-09-08T03:41:17;101737.00;;;16.17;100.00
76297;BME280;65104;52.994;6.552;2023-09-08T03:43:43;101743.03;;;16.16;100.00
76297;BME280;65104;52.994;6.552;2023-09-08T03:46:08;101740.41;;;16.12;100.00
76297;BME280;65104;52.994;6.552;2023-09-08T03:48:34;101742.13;;;16.12;100.00
76297;BME280;65104;52.994;6.552;2023-09-08T03:50:59;101740.38;;;16.11;100.00
76297;BME280;65104;52.994;6.552;2023-09-08T03:53:25;101742.97;;;16.08;100.00
76297;BME280;65104;52.994;6.552;2023-09-08T03:55:50;101741.19;;;16.05;100.00
76297;BME280;65104;52.994;6.552;2023-09-08T03:58:16;101742.03;;;16.03;100.00
76297;BME280;65104;52.994;6.552;2023-09-08T04:00:41;101744.63;;;16.01;100.00
76297;BME280;65104;52.994;6.552;2023-09-08T04:03:07;101740.22;;;15.96;100.00
76297;BME280;65104;52.994;6.552;2023-09-08T04:05:33;101748.84;;;15.95;100.00
76297;BME280;65104;52.994;6.552;2023-09-08T04:07:59;101746.22;;;15.90;100.00
76297;BME280;65104;52.994;6.552;2023-09-08T04:10:25;101752.22;;;15.88;100.00
76297;BME280;65104;52.994;6.552;2023-09-08T04:12:50;101751.31;;;15.84;100.00
76297;BME280;65104;52.994;6.552;2023-09-08T04:15:15;101746.97;;;15.80;100.00
76297;BME280;65104;52.994;6.552;2023-09-08T04:17:41;101747.78;;;15.77;100.00
76297;BME280;65104;52.994;6.552;2023-09-08T04:20:07;101746.91;;;15.77;100.00
76297;BME280;65104;52.994;6.552;2023-09-08T04:22:33;101742.59;;;15.76;100.00
76297;BME280;65104;52.994;6.552;2023-09-08T04:24:59;101745.19;;;15.74;100.00
76297;BME280;65104;52.994;6.552;2023-09-08T04:27:25;101738.25;;;15.72;100.00
76297;BME280;65104;52.994;6.552;2023-09-08T04:29:50;101740.81;;;15.70;100.00
76297;BME280;65104;52.994;6.552;2023-09-08T04:32:15;101737.38;;;15.71;100.00
76297;BME280;65104;52.994;6.552;2023-09-08T04:34:41;101745.13;;;15.70;100.00
76297;BME280;65104;52.994;6.552;2023-09-08T04:37:08;101742.50;;;15.68;100.00
76297;BME280;65104;52.994;6.552;2023-09-08T04:39:33;101738.19;;;15.69;100.00
76297;BME280;65104;52.994;6.552;2023-09-08T04:41:59;101742.47;;;15.67;100.00
76297;BME280;65104;52.994;6.552;2023-09-08T04:44:24;101745.06;;;15.65;100.00
76297;BME280;65104;52.994;6.552;2023-09-08T04:46:51;101746.78;;;15.65;100.00
76297;BME280;65104;52.994;6.552;2023-09-08T04:49:16;101742.47;;;15.64;100.00
76297;BME280;65104;52.994;6.552;2023-09-08T04:51:42;101745.06;;;15.64;100.00
76297;BME280;65104;52.994;6.552;2023-09-08T04:54:08;101745.06;;;15.64;100.00
76297;BME280;65104;52.994;6.552;2023-09-08T04:56:33;101741.59;;;15.66;100.00
76297;BME280;65104;52.994;6.552;2023-09-08T04:58:58;101738.16;;;15.64;100.00
76297;BME280;65104;52.994;6.552;2023-09-08T05:01:26;101743.31;;;15.63;100.00
76297;BME280;65104;52.994;6.552;2023-09-08T05:03:52;101746.78;;;15.63;100.00
76297;BME280;65104;52.994;6.552;2023-09-08T05:06:17;101742.44;;;15.62;100.00
76297;BME280;65104;52.994;6.552;2023-09-08T05:08:43;101739.84;;;15.62;100.00
76297;BME280;65104;52.994;6.552;2023-09-08T05:11:09;101745.91;;;15.63;100.00
76297;BME280;65104;52.994;6.552;2023-09-08T05:13:35;101741.56;;;15.62;100.00
76297;BME280;65104;52.994;6.552;2023-09-08T05:16:00;101739.81;;;15.61;100.00
76297;BME280;65104;52.994;6.552;2023-09-08T05:18:39;101738.97;;;15.62;100.00
76297;BME280;65104;52.994;6.552;2023-09-08T05:21:04;101744.16;;;15.62;100.00
76297;BME280;65104;52.994;6.552;2023-09-08T05:23:30;101739.00;;;15.63;100.00
76297;BME280;65104;52.994;6.552;2023-09-08T05:25:55;101738.13;;;15.63;100.00
76297;BME280;65104;52.994;6.552;2023-09-08T05:28:21;101739.00;;;15.63;100.00
76297;BME280;65104;52.994;6.552;2023-09-08T05:30:46;101744.19;;;15.63;100.00
76297;BME280;65104;52.994;6.552;2023-09-08T05:33:12;101740.72;;;15.66;100.00
76297;BME280;65104;52.994;6.552;2023-09-08T05:35:37;101743.41;;;15.70;100.00
76297;BME280;65104;52.994;6.552;2023-09-08T05:38:03;101733.91;;;15.71;100.00
76297;BME280;65104;52.994;6.552;2023-09-08T05:40:28;101736.53;;;15.75;100.00
76297;BME280;65104;52.994;6.552;2023-09-08T05:42:54;101740.88;;;15.76;100.00
76297;BME280;65104;52.994;6.552;2023-09-08T05:45:19;101739.19;;;15.80;100.00
76297;BME280;65104;52.994;6.552;2023-09-08T05:47:45;101743.53;;;15.81;100.00
76297;BME280;65104;52.994;6.552;2023-09-08T05:50:10;101736.66;;;15.83;100.00
76297;BME280;65104;52.994;6.552;2023-09-08T05:52:36;101738.38;;;15.86;100.00
76297;BME280;65104;52.994;6.552;2023-09-08T05:55:02;101732.38;;;15.88;100.00
76297;BME280;65104;52.994;6.552;2023-09-08T05:57:27;101736.72;;;15.89;100.00
76297;BME280;65104;52.994;6.552;2023-09-08T05:59:52;101737.63;;;15.94;100.00
76297;BME280;65104;52.994;6.552;2023-09-08T06:02:18;101733.34;;;15.98;100.00
76297;BME280;65104;52.994;6.552;2023-09-08T06:04:43;101739.44;;;16.01;100.00
76297;BME280;65104;52.994;6.552;2023-09-08T06:07:09;101740.31;;;16.03;100.00
76297;BME280;65104;52.994;6.552;2023-09-08T06:09:34;101730.81;;;16.04;100.00
76297;BME280;65104;52.994;6.552;2023-09-08T06:11:59;101741.28;;;16.10;100.00
76297;BME280;65104;52.994;6.552;2023-09-08T06:14:25;101751.63;;;16.13;100.00
76297;BME280;65104;52.994;6.552;2023-09-08T06:16:51;101736.16;;;16.18;100.00
76297;BME280;65104;52.994;6.552;2023-09-08T06:19:16;101742.25;;;16.23;100.00
76297;BME280;65104;52.994;6.552;2023-09-08T06:21:41;101746.63;;;16.30;100.00
76297;BME280;65104;52.994;6.552;2023-09-08T06:24:07;101738.88;;;16.33;100.00
76297;BME280;65104;52.994;6.552;2023-09-08T06:26:32;101746.72;;;16.40;100.00
76297;BME280;65104;52.994;6.552;2023-09-08T06:28:58;101732.97;;;16.46;100.00
76297;BME280;65104;52.994;6.552;2023-09-08T06:31:23;101733.00;;;16.50;100.00
76297;BME280;65104;52.994;6.552;2023-09-08T06:33:48;101729.56;;;16.56;100.00
76297;BME280;65104;52.994;6.552;2023-09-08T06:36:18;101731.44;;;16.66;100.00
76297;BME280;65104;52.994;6.552;2023-09-08T06:38:43;101728.00;;;16.73;100.00
76297;BME280;65104;52.994;6.552;2023-09-08T06:41:12;101728.97;;;16.81;100.00
76297;BME280;65104;52.994;6.552;2023-09-08T06:43:38;101729.88;;;16.93;100.00
76297;BME280;65104;52.994;6.552;2023-09-08T06:46:03;101729.94;;;17.02;100.00
76297;BME280;65104;52.994;6.552;2023-09-08T06:48:30;101729.16;;;17.12;100.00
76297;BME280;65104;52.994;6.552;2023-09-08T06:50:55;101729.22;;;17.22;100.00
76297;BME280;65104;52.994;6.552;2023-09-08T06:53:22;101731.00;;;17.33;100.00
76297;BME280;65104;52.994;6.552;2023-09-08T06:55:47;101733.66;;;17.40;100.00
76297;BME280;65104;52.994;6.552;2023-09-08T06:58:13;101737.97;;;17.46;100.00
76297;BME280;65104;52.994;6.552;2023-09-08T07:00:40;101734.56;;;17.51;100.00
76297;BME280;65104;52.994;6.552;2023-09-08T07:03:05;101733.75;;;17.61;100.00
76297;BME280;65104;52.994;6.552;2023-09-08T07:05:31;101733.81;;;17.71;100.00
76297;BME280;65104;52.994;6.552;2023-09-08T07:07:56;101739.91;;;17.80;100.00
76297;BME280;65104;52.994;6.552;2023-09-08T07:10:22;101738.19;;;17.90;100.00
76297;BME280;65104;52.994;6.552;2023-09-08T07:12:47;101733.91;;;18.01;100.00
76297;BME280;65104;52.994;6.552;2023-09-08T07:15:13;101731.31;;;18.09;100.00
76297;BME280;65104;52.994;6.552;2023-09-08T07:17:38;101732.22;;;18.21;100.00
76297;BME280;65104;52.994;6.552;2023-09-08T07:20:04;101733.09;;;18.29;100.00
76297;BME280;65104;52.994;6.552;2023-09-08T07:22:30;101738.28;;;18.38;100.00
76297;BME280;65104;52.994;6.552;2023-09-08T07:24:56;101725.28;;;18.45;100.00
76297;BME280;65104;52.994;6.552;2023-09-08T07:27:21;101730.53;;;18.57;100.00
76297;BME280;65104;52.994;6.552;2023-09-08T07:29:47;101728.78;;;18.65;100.00
76297;BME280;65104;52.994;6.552;2023-09-08T07:32:15;101724.47;;;18.74;100.00
76297;BME280;65104;52.994;6.552;2023-09-08T07:34:40;101733.13;;;18.86;100.00
76297;BME280;65104;52.994;6.552;2023-09-08T07:37:06;101731.38;;;18.94;100.00
76297;BME280;65104;52.994;6.552;2023-09-08T07:39:32;101733.09;;;18.99;100.00
76297;BME280;65104;52.994;6.552;2023-09-08T07:41:58;101736.53;;;19.06;100.00
76297;BME280;65104;52.994;6.552;2023-09-08T07:44:23;101740.03;;;19.11;100.00
76297;BME280;65104;52.994;6.552;2023-09-08T07:46:48;101739.13;;;19.20;100.00
76297;BME280;65104;52.994;6.552;2023-09-08T07:49:17;101737.38;;;19.31;100.00
76297;BME280;65104;52.994;6.552;2023-09-08T07:51:44;101733.88;;;19.39;100.00
76297;BME280;65104;52.994;6.552;2023-09-08T07:54:10;101733.88;;;19.50;100.00
76297;BME280;65104;52.994;6.552;2023-09-08T07:56:35;101737.28;;;19.61;100.00
76297;BME280;65104;52.994;6.552;2023-09-08T07:59:00;101732.91;;;19.72;100.00
76297;BME280;65104;52.994;6.552;2023-09-08T08:01:26;101729.38;;;19.79;100.00
76297;BME280;65104;52.994;6.552;2023-09-08T08:03:51;101724.97;;;19.88;100.00
76297;BME280;65104;52.994;6.552;2023-09-08T08:06:17;101722.31;;;19.98;100.00
76297;BME280;65104;52.994;6.552;2023-09-08T08:08:42;101730.09;;;20.09;100.00
76297;BME280;65104;52.994;6.552;2023-09-08T08:11:15;101727.41;;;20.18;100.00
76297;BME280;65104;52.994;6.552;2023-09-08T08:13:41;101731.69;;;20.28;100.00
76297;BME280;65104;52.994;6.552;2023-09-08T08:16:07;101728.19;;;20.38;100.00
76297;BME280;65104;52.994;6.552;2023-09-08T08:18:32;101728.94;;;20.51;100.00
76297;BME280;65104;52.994;6.552;2023-09-08T08:20:58;101732.31;;;20.62;100.00
76297;BME280;65104;52.994;6.552;2023-09-08T08:23:25;101733.94;;;20.77;100.00
76297;BME280;65104;52.994;6.552;2023-09-08T08:25:51;101727.72;;;20.93;100.00
76297;BME280;65104;52.994;6.552;2023-09-08T08:28:16;101725.81;;;21.07;100.00
76297;BME280;65104;52.994;6.552;2023-09-08T08:30:41;101731.75;;;21.23;100.00
76297;BME280;65104;52.994;6.552;2023-09-08T08:33:07;101728.94;;;21.40;100.00
76297;BME280;65104;52.994;6.552;2023-09-08T08:35:32;101734.91;;;21.52;100.00
76297;BME280;65104;52.994;6.552;2023-09-08T08:37:58;101732.06;;;21.69;100.00
76297;BME280;65104;52.994;6.552;2023-09-08T08:40:24;101726.50;;;21.93;100.00
76297;BME280;65104;52.994;6.552;2023-09-08T08:42:54;101727.94;;;22.19;100.00
76297;BME280;65104;52.994;6.552;2023-09-08T08:45:25;101717.97;;;22.40;100.00
76297;BME280;65104;52.994;6.552;2023-09-08T08:47:51;101717.53;;;22.66;100.00
76297;BME280;65104;52.994;6.552;2023-09-08T08:50:18;101706.78;;;22.85;100.00
76297;BME280;65104;52.994;6.552;2023-09-08T08:52:44;101712.34;;;23.14;100.00
76297;BME280;65104;52.994;6.552;2023-09-08T08:55:10;101710.00;;;23.43;100.00
76297;BME280;65104;52.994;6.552;2023-09-08T08:57:39;101717.19;;;23.77;100.00
76297;BME280;65104;52.994;6.552;2023-09-08T09:00:09;101713.00;;;24.07;100.00
76297;BME280;65104;52.994;6.552;2023-09-08T09:02:37;101713.09;;;24.41;100.00
76297;BME280;65104;52.994;6.552;2023-09-08T09:05:04;101712.47;;;24.65;100.00
76297;BME280;65104;52.994;6.552;2023-09-08T09:07:31;101710.28;;;24.81;100.00
76297;BME280;65104;52.994;6.552;2023-09-08T09:09:57;101705.06;;;24.79;100.00
76297;BME280;65104;52.994;6.552;2023-09-08T09:12:23;101706.72;;;24.83;100.00
76297;BME280;65104;52.994;6.552;2023-09-08T09:14:52;101705.06;;;24.79;100.00
76297;BME280;65104;52.994;6.552;2023-09-08T09:17:18;101703.28;;;24.81;100.00
76297;BME280;65104;52.994;6.552;2023-09-08T09:19:44;101698.41;;;24.67;100.00
76297;BME280;65104;52.994;6.552;2023-09-08T09:22:09;101703.13;;;24.53;100.00
76297;BME280;65104;52.994;6.552;2023-09-08T09:24:39;101700.41;;;24.58;100.00
76297;BME280;65104;52.994;6.552;2023-09-08T09:27:12;101708.31;;;24.56;100.00
76297;BME280;65104;52.994;6.552;2023-09-08T09:29:49;101704.03;;;24.52;100.00
76297;BME280;65104;52.994;6.552;2023-09-08T09:32:16;101698.84;;;24.51;100.00
76297;BME280;65104;52.994;6.552;2023-09-08T09:34:48;101710.19;;;24.51;100.00
76297;BME280;65104;52.994;6.552;2023-09-08T09:37:15;101705.75;;;24.53;100.00
76297;BME280;65104;52.994;6.552;2023-09-08T09:39:40;101702.25;;;24.53;100.00
76297;BME280;65104;52.994;6.552;2023-09-08T09:42:06;101701.34;;;24.54;100.00
76297;BME280;65104;52.994;6.552;2023-09-08T09:44:31;101698.69;;;24.55;100.00
76297;BME280;65104;52.994;6.552;2023-09-08T09:46:57;101701.28;;;24.57;100.00
76297;BME280;65104;52.994;6.552;2023-09-08T09:49:22;101698.59;;;24.60;100.00
76297;BME280;65104;52.994;6.552;2023-09-08T09:51:53;101695.88;;;24.63;100.00
76297;BME280;65104;52.994;6.552;2023-09-08T09:54:19;101695.50;;;24.78;100.00
76297;BME280;65104;52.994;6.552;2023-09-08T09:56:45;101691.66;;;24.90;100.00
76297;BME280;65104;52.994;6.552;2023-09-08T09:59:13;101684.81;;;25.17;100.00
76297;BME280;65104;52.994;6.552;2023-09-08T10:01:40;101672.72;;;25.40;100.00
76297;BME280;65104;52.994;6.552;2023-09-08T10:04:06;101682.25;;;25.74;100.00
76297;BME280;65104;52.994;6.552;2023-09-08T10:06:33;101679.19;;;25.88;100.00
76297;BME280;65104;52.994;6.552;2023-09-08T10:09:00;101675.78;;;26.12;100.00
76297;BME280;65104;52.994;6.552;2023-09-08T10:11:28;101671.28;;;26.42;100.00
76297;BME280;65104;52.994;6.552;2023-09-08T10:13:58;101671.44;;;26.64;100.00
76297;BME280;65104;52.994;6.552;2023-09-08T10:16:27;101667.97;;;26.86;100.00
76297;BME280;65104;52.994;6.552;2023-09-08T10:18:58;101675.78;;;27.14;100.00
76297;BME280;65104;52.994;6.552;2023-09-08T10:21:25;101664.25;;;27.40;100.00
76297;BME280;65104;52.994;6.552;2023-09-08T10:24:29;101660.78;;;27.38;100.00
76297;BME280;65104;52.994;6.552;2023-09-08T10:27:01;101657.63;;;27.52;100.00
76297;BME280;65104;52.994;6.552;2023-09-08T10:29:30;101663.97;;;27.71;100.00
76297;BME280;65104;52.994;6.552;2023-09-08T10:31:57;101655.69;;;27.80;97.77
76297;BME280;65104;52.994;6.552;2023-09-08T10:34:24;101658.13;;;27.85;100.00
76297;BME280;65104;52.994;6.552;2023-09-08T10:36:50;101655.91;;;27.96;100.00
76297;BME280;65104;52.994;6.552;2023-09-08T10:39:27;101662.72;;;28.01;100.00
76297;BME280;65104;52.994;6.552;2023-09-08T10:44:58;101667.63;;;28.32;100.00
76297;BME280;65104;52.994;6.552;2023-09-08T10:47:25;101661.75;;;28.46;100.00
76297;BME280;65104;52.994;6.552;2023-09-08T10:49:51;101662.41;;;28.51;100.00
76297;BME280;65104;52.994;6.552;2023-09-08T10:52:21;101662.41;;;28.51;88.43
76297;BME280;65104;52.994;6.552;2023-09-08T10:54:49;101675.09;;;28.63;86.15
76297;BME280;65104;52.994;6.552;2023-09-08T10:57:16;101666.38;;;28.82;96.09
76297;BME280;65104;52.994;6.552;2023-09-08T10:59:54;101668.31;;;28.98;94.87
76297;BME280;65104;52.994;6.552;2023-09-08T11:02:42;101667.56;;;28.95;85.92
76297;BME280;65104;52.994;6.552;2023-09-08T11:05:10;101663.03;;;28.98;85.95
76297;BME280;65104;52.994;6.552;2023-09-08T11:07:36;101666.53;;;28.99;83.88
76297;BME280;65104;52.994;6.552;2023-09-08T11:10:03;101664.38;;;29.07;84.54
76297;BME280;65104;52.994;6.552;2023-09-08T11:12:28;101664.78;;;29.37;96.92
76297;BME280;65104;52.994;6.552;2023-09-08T11:14:54;101664.41;;;29.63;86.05
76297;BME280;65104;52.994;6.552;2023-09-08T11:17:20;101658.75;;;29.71;94.70
76297;BME280;65104;52.994;6.552;2023-09-08T11:19:46;101664.88;;;29.90;95.67
76297;BME280;65104;52.994;6.552;2023-09-08T11:22:13;101651.84;;;30.04;89.72
76297;BME280;65104;52.994;6.552;2023-09-08T11:24:38;101653.84;;;29.99;82.86
76297;BME280;65104;52.994;6.552;2023-09-08T11:27:04;101658.06;;;30.03;79.76
76297;BME280;65104;52.994;6.552;2023-09-08T11:29:30;101652.31;;;30.30;91.67
76297;BME280;65104;52.994;6.552;2023-09-08T11:31:56;101650.00;;;30.41;84.55
76297;BME280;65104;52.994;6.552;2023-09-08T11:34:21;101654.25;;;30.43;86.10
76297;BME280;65104;52.994;6.552;2023-09-08T11:36:47;101655.38;;;30.56;83.43
76297;BME280;65104;52.994;6.552;2023-09-08T11:39:14;101659.13;;;30.52;74.37
76297;BME280;65104;52.994;6.552;2023-09-08T11:41:39;101661.41;;;30.60;71.78
76297;BME280;65104;52.994;6.552;2023-09-08T11:44:05;101665.03;;;30.75;68.13
76297;BME280;65104;52.994;6.552;2023-09-08T11:46:30;101654.63;;;30.87;70.07
76297;BME280;65104;52.994;6.552;2023-09-08T11:48:56;101658.00;;;31.07;72.53
76297;BME280;65104;52.994;6.552;2023-09-08T11:51:26;101660.28;;;30.64;60.82
76297;BME280;65104;52.994;6.552;2023-09-08T11:53:52;101660.25;;;30.81;63.53
76297;BME280;65104;52.994;6.552;2023-09-08T11:56:19;101656.19;;;30.91;70.29
76297;BME280;65104;52.994;6.552;2023-09-08T11:58:44;101666.31;;;31.01;65.82
76297;BME280;65104;52.994;6.552;2023-09-08T12:01:10;101652.19;;;31.00;62.83
76297;BME280;65104;52.994;6.552;2023-09-08T12:03:51;101658.91;;;30.90;58.88
76297;BME280;65104;52.994;6.552;2023-09-08T12:06:16;101652.72;;;30.74;60.28
76297;BME280;65104;52.994;6.552;2023-09-08T12:08:42;101651.59;;;30.95;59.92
76297;BME280;65104;52.994;6.552;2023-09-08T12:11:09;101652.06;;;31.19;56.96
76297;BME280;65104;52.994;6.552;2023-09-08T12:13:35;101648.91;;;31.28;59.12
76297;BME280;65104;52.994;6.552;2023-09-08T12:16:00;101651.41;;;31.31;58.17
76297;BME280;65104;52.994;6.552;2023-09-08T12:18:39;101649.78;;;31.28;61.34
76297;BME280;65104;52.994;6.552;2023-09-08T12:21:05;101651.81;;;31.23;66.66
76297;BME280;65104;52.994;6.552;2023-09-08T12:23:31;101658.91;;;31.23;63.15
76297;BME280;65104;52.994;6.552;2023-09-08T12:25:57;101652.84;;;31.21;59.72
76297;BME280;65104;52.994;6.552;2023-09-08T12:28:23;101648.56;;;31.18;57.39
76297;BME280;65104;52.994;6.552;2023-09-08T12:30:49;101652.06;;;31.19;64.05
76297;BME280;65104;52.994;6.552;2023-09-08T12:33:14;101645.63;;;31.23;63.33
76297;BME280;65104;52.994;6.552;2023-09-08T12:35:43;101641.19;;;31.23;60.77
76297;BME280;65104;52.994;6.552;2023-09-08T12:38:09;101641.03;;;31.26;59.89
76297;BME280;65104;52.994;6.552;2023-09-08T12:40:36;101647.00;;;31.14;59.05